Historique des mesures à Cassis (13260), France
Quotidien Résumé Aout 2, 2020 Unités:  Métrique    US   Métrique/US
Quotidien Hebdomadaire Mensuel Annuel
  Maximum: Minimum: Moyenne:
Température: 26.2 °C 17 °C 21.1 °C
Point de rosée: 17.5 °C 9.9 °C 12.6 °C
Humidité: 68% 48% 59%
Vitesse du vent: 7.9km/h 0km/h 2.4km/h
Rafales: 18.4km/h - -
Vent- - SSW
Pression: 1014.1 hPa 1008.8 hPa -
Précipitations: 0.0 mm    
Historical Graphs
 
 
Mesures pour : Aout 2, 2020
Heure Temperature Point de rosée Pression Vent Vitesse du vent Rafales Humidité Pluie (par heure)
00:11 18.4 °C 12.2 °C 1009.2 hPa Calm   1.4 km/h 67% 0.0 mm
01:11 17.8 °C 11.6 °C 1009.2 hPa NNW 1.8 km/h 3.6 km/h 67% 0.0 mm
02:11 17.5 °C 11.5 °C 1008.9 hPa Calm   1.4 km/h 68% 0.0 mm
03:12 17.4 °C 11.2 °C 1008.9 hPa Calm   4.3 km/h 67% 0.0 mm
04:11 17.4 °C 10.7 °C 1008.8 hPa Calm   2.5 km/h 65% 0.0 mm
05:11 17.1 °C 10.7 °C 1008.8 hPa Calm   5 km/h 66% 0.0 mm
06:11 17.1 °C 10 °C 1009.0 hPa Calm   5 km/h 63% 0.0 mm
07:11 17 °C 9.9 °C 1009.5 hPa WNW 3.6 km/h 6.8 km/h 63% 0.0 mm
08:11 20.4 °C 11.6 °C 1009.8 hPa Calm   6.5 km/h 57% 0.0 mm
09:11 19.9 °C 11.4 °C 1010.2 hPa WNW 2.5 km/h 3.6 km/h 58% 0.0 mm
10:11 20.2 °C 11.9 °C 1010.3 hPa SE 7.9 km/h 7.9 km/h 59% 0.0 mm
11:11 21.9 °C 13.3 °C 1011.0 hPa SE 3.6 km/h 4.7 km/h 58% 0.0 mm
12:11 23.6 °C 14 °C 1011.2 hPa SE 3.2 km/h 7.2 km/h 55% 0.0 mm
13:11 25.4 °C 16.5 °C 1011.2 hPa SSW 7.2 km/h 8.3 km/h 58% 0.0 mm
14:11 26.1 °C 17.5 °C 1011.3 hPa SE 1.8 km/h 16.2 km/h 59% 0.0 mm
15:12 26.2 °C 16.4 °C 1011.1 hPa ESE 3.6 km/h 14.4 km/h 55% 0.0 mm
16:11 25.3 °C 15 °C 1011.1 hPa SE 4.7 km/h 12.2 km/h 53% 0.0 mm
17:11 25.6 °C 13.8 °C 1011.4 hPa WNW 6.5 km/h 18.4 km/h 48% 0.0 mm
18:12 24.6 °C 14.1 °C 1011.6 hPa SE 4 km/h 8.6 km/h 52% 0.0 mm
19:11 23.6 °C 13.4 °C 1011.9 hPa Calm   5 km/h 53% 0.0 mm
20:11 21.9 °C 13 °C 1012.4 hPa Calm     57% 0.0 mm
21:11 21 °C 11.6 °C 1013.1 hPa NW 6.1 km/h 10.1 km/h 55% 0.0 mm
22:11 20.4 °C 11 °C 1013.8 hPa Calm   4.3 km/h 55% 0.0 mm
23:11 19.9 °C 10.8 °C 1014.1 hPa Calm   1.4 km/h 56% 0.0 mm
Observations météo à CASSIS
WU-History script by Weather Underground - 2 mb